Saturday, April 21, 2018, 9:05 PM EDT
Back to Local

KLWM, Lawrence Municipal Airport

Location: North Andover, MA, United States Lat: 42.717
Local Time: 9:05 PM EDT ( 1:05 GMT) Lon: -71.133
Time Zone: US/Eastern Elev: 147 ft

Show me the last for .
Show Decoded

2018-04-21 20:54 METAR KLWM 220054Z 34006KT 10SM CLR 11/M07 A3028 RMK AO2 SLP253 T01111072 =
2018-04-21 19:54 METAR KLWM 212354Z 35007KT 10SM CLR 12/M07 A3025 RMK AO2 SLP245 T01221072 10161
                 20122 53018 =
2018-04-21 18:54 METAR KLWM 212254Z 33010KT 10SM CLR 14/M08 A3022 RMK AO2 SLP233 T01391078 =
2018-04-21 17:54 METAR KLWM 212154Z 30011KT 10SM CLR 15/M07 A3021 RMK AO2 SLP229 T01501072 =
2018-04-21 16:54 METAR KLWM 212054Z 32012G19KT 10SM CLR 16/M07 A3020 RMK AO2 SLP226 T01561072
                 55010 =
2018-04-21 15:54 METAR KLWM 211954Z 32012G20KT 10SM CLR 16/M06 A3019 RMK AO2 SLP225 T01561056 =
2018-04-21 14:54 METAR KLWM 211854Z 30012G20KT 10SM CLR 15/M06 A3020 RMK AO2 SLP227 T01501061 =
2018-04-21 13:54 METAR KLWM 211754Z 34011G17KT 10SM CLR 14/M05 A3023 RMK AO2 SLP237 T01441050
                 10150 20067 58021 =
2018-04-21 12:54 METAR KLWM 211654Z 30012G18KT 10SM CLR 13/M05 A3025 RMK AO2 SLP244 T01331050 =
2018-04-21 11:54 METAR KLWM 211554Z 28012G19KT 240V320 10SM CLR 12/M04 A3027 RMK AO2 SLP252
                 T01221039 =
2018-04-21 10:54 METAR KLWM 211454Z 32009G17KT 10SM CLR 11/M04 A3029 RMK AO2 SLP257 T01111044
                 58008 =
2018-04-21 09:54 METAR KLWM 211354Z 30009KT 10SM CLR 10/M03 A3030 RMK AO2 SLP260 T01001028 =
2018-04-21 08:54 METAR KLWM 211254Z 32010KT 10SM CLR 08/M03 A3031 RMK AO2 SLP263 T00781033 =
2018-04-21 07:54 METAR KLWM 211154Z 29009KT 10SM CLR 06/M02 A3031 RMK AO2 SLP265 T00611022 10061
                 20028 51010 =
2018-04-21 06:54 METAR KLWM 211054Z 27004KT 10SM CLR 04/M03 A3031 RMK AO2 SLP264 T00391028 =
2018-04-21 05:54 METAR KLWM 210954Z AUTO 28004KT 10SM CLR 03/M03 A3029 RMK AO2 SLP259 T00281033 =
2018-04-21 04:54 METAR KLWM 210854Z AUTO 27004KT 10SM CLR 04/M03 A3028 RMK AO2 SLP255 T00391028
                 53009 =
2018-04-21 03:54 METAR KLWM 210754Z AUTO 26007KT 10SM CLR 04/M03 A3027 RMK AO2 SLP252 T00391028 =
2018-04-21 02:54 METAR KLWM 210654Z AUTO 25005KT 10SM CLR 04/M03 A3026 RMK AO2 SLP248 T00391028 =
2018-04-21 01:54 METAR KLWM 210554Z AUTO 27004KT 10SM CLR 04/M03 A3026 RMK AO2 SLP246 T00391033
                 10072 20039 56003 =
2018-04-21 00:54 METAR KLWM 210454Z AUTO 29006KT 10SM CLR 04/M03 A3026 RMK AO2 SLP247 T00441033
                 401220028 =
2018-04-20 23:54 METAR KLWM 210354Z AUTO 30006KT 10SM BKN085 06/M03 A3026 RMK AO2 SLP247
                 T00561028 =
2018-04-20 22:54 METAR KLWM 210254Z AUTO 30005KT 10SM OVC085 06/M03 A3026 RMK AO2 SLP249
                 T00561028 51016 =
2018-04-20 21:54 METAR KLWM 210154Z 28007G15KT 10SM CLR 06/M03 A3026 RMK AO2 SLP248 T00611028 =

Support USWX by starting your Amazon purchase here.